| time (UTC) | temp F | wind direction | speed MPH | gust MPH | rain 1hr in | rain 24hr in | rain mn in | humidity % | barometer mb |
| 20260505233049 | 65 | 300 | 5.0 | 13.0 | 0.00 | 0.21 | 0.21 | 1 | 1013.7 |
| 20260505231545 | 66 | 300 | 4.0 | 10.0 | 0.00 | 0.21 | 0.21 | 1 | 1013.9 |
| 20260505230040 | 66 | 302 | 5.0 | 14.0 | 0.00 | 0.21 | 0.21 | 1 | 1013.7 |
| 20260505224536 | 65 | 305 | 6.0 | 15.0 | 0.00 | 0.21 | 0.21 | 1 | 1013.9 |
| 20260505223034 | 66 | 266 | 3.0 | 13.0 | 0.00 | 0.21 | 0.21 | 1 | 1013.9 |
| 20260505221527 | 66 | 298 | 4.0 | 14.0 | 0.00 | 0.21 | 0.21 | 1 | 1013.9 |
| 20260505220022 | 66 | 258 | 6.0 | 15.0 | 0.00 | 0.21 | 0.21 | 1 | 1014.0 |
| 20260505214529 | 66 | 207 | 8.0 | 15.0 | 0.00 | 0.21 | 0.21 | 1 | 1014.1 |
| 20260505213013 | 65 | 229 | 4.0 | 12.0 | 0.01 | 0.21 | 0.21 | 1 | 1014.3 |
| 20260505211509 | 65 | 304 | 6.0 | 16.0 | 0.01 | 0.21 | 0.21 | 1 | 1014.3 |
| 20260505210006 | 65 | 190 | 5.0 | 15.0 | 0.01 | 0.21 | 0.21 | 1 | 1014.3 |
| 20260505204605 | 65 | 296 | 4.0 | 11.0 | 0.01 | 0.21 | 0.21 | 1 | 1014.3 |
| 20260505203058 | 65 | 281 | 5.0 | 11.0 | 0.00 | 0.20 | 0.20 | 1 | 1014.7 |
| 20260505201554 | 64 | 254 | 7.0 | 13.0 | 0.00 | 0.20 | 0.20 | 1 | 1014.7 |
| 20260505200100 | 64 | 259 | 3.0 | 11.0 | 0.00 | 0.20 | 0.20 | 1 | 1014.7 |
| 20260505194547 | 64 | 276 | 6.0 | 14.0 | 0.00 | 0.20 | 0.20 | 1 | 1014.8 |
| 20260505193037 | 64 | 252 | 3.0 | 15.0 | 0.00 | 0.20 | 0.20 | 1 | 1014.8 |
| 20260505191534 | 63 | 294 | 3.0 | 13.0 | 0.00 | 0.20 | 0.20 | 1 | 1014.8 |
| 20260505190029 | 59 | 313 | 4.0 | 11.0 | 0.00 | 0.20 | 0.20 | 1 | 1014.7 |
| 20260505184526 | 57 | 5 | 4.0 | 14.0 | 0.00 | 0.20 | 0.20 | 1 | 1014.8 |
| 20260505183020 | 57 | 247 | 3.0 | 11.0 | 0.00 | 0.20 | 0.20 | 1 | 1015.0 |
| 20260505181515 | 58 | 263 | 4.0 | 9.0 | 0.00 | 0.20 | 0.20 | 1 | 1015.1 |
| 20260505180020 | 58 | 41 | 0.0 | 3.0 | 0.00 | 0.20 | 0.20 | 1 | 1014.9 |
| 20260505174513 | 56 | 37 | 1.0 | 3.0 | 0.00 | 0.20 | 0.20 | 1 | 1014.7 |
| 20260505173004 | 55 | 323 | 0.0 | 1.0 | 0.00 | 0.20 | 0.20 | 1 | 1014.7 |
| 20260505171559 | 56 | 324 | 2.0 | 8.0 | 0.00 | 0.20 | 0.20 | 1 | 1014.5 |
| 20260505170057 | 57 | 155 | 0.0 | 5.0 | 0.01 | 0.20 | 0.20 | 1 | 1014.4 |
| 20260505164552 | 57 | 166 | 4.0 | 9.0 | 0.01 | 0.20 | 0.20 | 1 | 1014.3 |
| 20260505163051 | 57 | 162 | 3.0 | 6.0 | 0.01 | 0.20 | 0.20 | 1 | 1014.1 |
| 20260505161543 | 57 | 156 | 1.0 | 6.0 | 0.01 | 0.20 | 0.20 | 1 | 1014.1 |
| 20260505153031 | 56 | 49 | 1.0 | 3.0 | 0.00 | 0.19 | 0.19 | 1 | 1013.9 |
| 20260505151525 | 55 | 12 | 2.0 | 5.0 | 0.00 | 0.19 | 0.19 | 1 | 1013.7 |
| 20260505124545 | 56 | 329 | 2.0 | 5.0 | 0.02 | 0.18 | 0.18 | 1 | 1012.5 |
| 20260505123036 | 56 | 203 | 0.0 | 2.0 | 0.02 | 0.17 | 0.17 | 1 | 1012.3 |
| 20260505121533 | 56 | 203 | 0.0 | 1.0 | 0.02 | 0.17 | 0.17 | 1 | 1012.3 |
| 20260505120032 | 56 | 203 | 0.0 | 3.0 | 0.02 | 0.17 | 0.17 | 1 | 1012.3 |
| 20260505114524 | 55 | 203 | 0.0 | 0.0 | 0.02 | 0.16 | 0.16 | 1 | 1012.3 |
| 20260505113020 | 55 | 203 | 0.0 | 1.0 | 0.02 | 0.15 | 0.15 | 1 | 1012.4 |
| 20260505111515 | 55 | 203 | 0.0 | 3.0 | 0.02 | 0.15 | 0.15 | 1 | 1012.3 |
| 20260505101558 | 54 | 194 | 0.0 | 3.0 | 0.04 | 0.13 | 0.13 | 1 | 1012.5 |
| 20260505100055 | 54 | 194 | 1.0 | 3.0 | 0.05 | 0.12 | 0.12 | 1 | 1012.7 |
| 20260505094549 | 54 | 192 | 0.0 | 4.0 | 0.06 | 0.11 | 0.11 | 1 | 1012.7 |
| 20260505093046 | 54 | 228 | 0.0 | 2.0 | 0.07 | 0.10 | 0.10 | 1 | 1012.8 |
| 20260505091546 | 54 | 228 | 0.0 | 3.0 | 0.07 | 0.09 | 0.09 | 1 | 1013.0 |
| 20260505090038 | 54 | 215 | 2.0 | 8.0 | 0.06 | 0.07 | 0.07 | 1 | 1013.1 |
| 20260505084532 | 53 | 202 | 0.0 | 2.0 | 0.05 | 0.05 | 0.05 | 1 | 1013.2 |
| 20260505083029 | 53 | 202 | 0.0 | 0.0 | 0.03 | 0.03 | 0.03 | 1 | 1013.3 |
| 20260505081521 | 53 | 202 | 0.0 | 1.0 | 0.02 | 0.02 | 0.02 | 1 | 1013.5 |
| 20260505080018 | 53 | 202 | 1.0 | 6.0 | 0.00 | 0.00 | 0.00 | 1 | 1013.5 |
| 20260505074514 | 54 | 171 | 3.0 | 6.0 | 0.00 | 0.00 | 0.00 | 1 | 1013.4 |
| 20260505073009 | 55 | 168 | 0.0 | 5.0 | 0.00 | 0.00 | 0.00 | 1 | 1013.4 |
| 20260505071507 | 57 | 190 | 3.0 | 10.0 | 0.00 | 0.00 | 0.00 | 1 | 1013.5 |
| 20260505070101 | 59 | 173 | 3.0 | 5.0 | 0.00 | 0.00 | 0.00 | 1 | 1013.4 |
| 20260505064559 | 59 | 211 | 1.0 | 3.0 | 0.00 | 0.00 | 0.00 | 1 | 1013.6 |
| 20260505063139 | 59 | 211 | 2.0 | 5.0 | 0.00 | 0.00 | 0.00 | 1 | 1013.7 |
| 20260505061638 | 59 | 190 | 2.0 | 5.0 | 0.00 | 0.00 | 0.00 | 1 | 1013.9 |
| 20260505060103 | 59 | 182 | 3.0 | 6.0 | 0.00 | 0.00 | 0.00 | 1 | 1013.9 |
| 20260505054606 | 60 | 192 | 2.0 | 6.0 | 0.00 | 0.00 | 0.00 | 1 | 1014.1 |
| 20260505053054 | 60 | 187 | 2.0 | 6.0 | 0.00 | 0.00 | 0.00 | 1 | 1014.1 |
| 20260505051610 | 60 | 189 | 2.0 | 6.0 | 0.00 | 0.00 | 0.00 | 1 | 1014.4 |
| 20260505041533 | 59 | 227 | 0.0 | 4.0 | 0.00 | 0.00 | 0.00 | 1 | 1014.5 |
| 20260505040029 | 59 | 246 | 0.0 | 3.0 | 0.00 | 0.00 | 0.00 | 1 | 1014.4 |
| 20260505034523 | 58 | 269 | 0.0 | 3.0 | 0.00 | 0.00 | 0.00 | 1 | 1014.3 |
| 20260505033019 | 58 | 279 | 1.0 | 4.0 | 0.00 | 0.00 | 0.00 | 1 | 1014.3 |
| 20260505031517 | 59 | 278 | 3.0 | 5.0 | 0.00 | 0.00 | 0.00 | 1 | 1014.2 |
| 20260505030011 | 59 | 276 | 2.0 | 6.0 | 0.00 | 0.00 | 0.00 | 1 | 1014.1 |
| 20260505024509 | 61 | 294 | 3.0 | 6.0 | 0.00 | 0.00 | 0.00 | 1 | 1013.9 |
| 20260505023002 | 62 | 250 | 3.0 | 7.0 | 0.00 | 0.00 | 0.00 | 1 | 1014.0 |
| 20260505021557 | 62 | 302 | 5.0 | 8.0 | 0.00 | 0.00 | 0.00 | 1 | 1013.9 |
| 20260505020103 | 63 | 260 | 6.0 | 9.0 | 0.00 | 0.00 | 0.00 | 1 | 1014.0 |
| 20260505014554 | 64 | 257 | 2.0 | 10.0 | 0.00 | 0.00 | 0.00 | 1 | 1013.7 |
| 20260505013048 | 65 | 232 | 4.0 | 10.0 | 0.00 | 0.00 | 0.00 | 1 | 1013.9 |
| 20260505011544 | 65 | 246 | 3.0 | 8.0 | 0.00 | 0.00 | 0.00 | 1 | 1013.8 |
| 20260505010039 | 65 | 295 | 4.0 | 10.0 | 0.00 | 0.00 | 0.00 | 1 | 1013.9 |
| 20260505004535 | 65 | 208 | 5.0 | 14.0 | 0.00 | 0.00 | 0.00 | 1 | 1014.1 |
| 20260505003029 | 66 | 285 | 7.0 | 12.0 | 0.00 | 0.00 | 0.00 | 1 | 1013.9 |
| 20260505001525 | 66 | 312 | 7.0 | 14.0 | 0.00 | 0.00 | 0.00 | 1 | 1014.0 |
| 20260505000048 | 67 | 179 | 2.0 | 14.0 | 0.00 | 0.00 | 0.00 | 1 | 1013.9 |
| 20260504234543 | 67 | 261 | 6.0 | 13.0 | 0.00 | 0.00 | 0.00 | 1 | 1014.2 |